Time;durP1;ratioP1;P1;durP2;ratioP2;P2;SDS_P1;SDS_P2;PMS_P1;PMS_P2;Temp;Humidity;BMP_temperature;BMP_pressure;BME280_temperature;BME280_humidity;BME280_pressure;Samples;Min_cycle;Max_cycle;Signal;HPM_P1;HPM_P2
2023/07/03 00:01:03;;;;;;;26.48;6.15;;;;;;;;;;6180610;23;20025;-88
2023/07/03 00:03:31;;;;;;;29.88;5.93;;;;;;;;;;6154638;23;20072;-88
2023/07/03 00:05:58;;;;;;;28.38;5.85;;;;;;;;;;6181021;23;20029;-88
2023/07/03 00:08:32;;;;;;;33.67;6.00;;;;;;;;;;6182473;23;20021;-88
2023/07/03 00:11:00;;;;;;;35.05;6.40;;;;;;;;;;6155191;23;20025;-87
2023/07/03 00:13:34;;;;;;;27.60;5.97;;;;;;;;;;6181591;23;20035;-88
2023/07/03 00:16:03;;;;;;;24.55;5.47;;;;;;;;;;6181432;23;20080;-87
2023/07/03 00:18:30;;;;;;;29.85;6.05;;;;;;;;;;6181933;23;20021;-88
2023/07/03 00:21:04;;;;;;;33.08;6.38;;;;;;;;;;6180797;23;20025;-87
2023/07/03 00:23:32;;;;;;;26.70;5.63;;;;;;;;;;6156075;23;20048;-87
2023/07/03 00:25:59;;;;;;;32.50;6.03;;;;;;;;;;6178795;23;20029;-87
2023/07/03 00:28:33;;;;;;;24.98;6.38;;;;;;;;;;6181195;23;20083;-88
2023/07/03 00:31:01;;;;;;;27.30;5.40;;;;;;;;;;6154252;23;20021;-88
2023/07/03 00:33:35;;;;;;;33.78;6.32;;;;;;;;;;6179569;23;20025;-87
2023/07/03 00:36:03;;;;;;;31.42;7.35;;;;;;;;;;6180292;23;20021;-87
2023/07/03 00:38:30;;;;;;;26.05;5.97;;;;;;;;;;6182774;23;20021;-88
2023/07/03 00:41:04;;;;;;;35.47;6.53;;;;;;;;;;6183030;23;20021;-88
2023/07/03 00:43:33;;;;;;;27.08;5.82;;;;;;;;;;6184146;23;20084;-87
2023/07/03 00:46:00;;;;;;;25.58;5.30;;;;;;;;;;6156352;23;20044;-88
2023/07/03 00:48:35;;;;;;;25.50;6.10;;;;;;;;;;6180945;23;20745;-87
2023/07/03 00:51:02;;;;;;;32.95;7.00;;;;;;;;;;6155394;23;20035;-88
2023/07/03 00:53:36;;;;;;;31.15;7.22;;;;;;;;;;6180614;23;20662;-88
2023/07/03 00:56:04;;;;;;;31.65;6.70;;;;;;;;;;6179840;23;20470;-88
2023/07/03 00:58:32;;;;;;;37.47;6.53;;;;;;;;;;6138069;23;20026;-87
2023/07/03 01:01:15;;;;;;;29.05;6.28;;;;;;;;;;6118762;23;20081;-88
2023/07/03 01:04:12;;;;;;;31.60;6.50;;;;;;;;;;6119866;23;20459;-88
2023/07/03 01:06:54;;;;;;;33.85;6.40;;;;;;;;;;6115365;23;20030;-88
2023/07/03 01:09:23;;;;;;;27.83;5.50;;;;;;;;;;6120223;23;20044;-88
2023/07/03 01:11:58;;;;;;;20.17;5.95;;;;;;;;;;6122107;23;20122;-88
2023/07/03 01:14:26;;;;;;;21.70;6.45;;;;;;;;;;6120313;23;20018;-89
2023/07/03 01:17:01;;;;;;;25.98;6.78;;;;;;;;;;6119879;23;20026;-89
2023/07/03 01:19:31;;;;;;;23.90;6.28;;;;;;;;;;6119505;23;20025;-88
2023/07/03 01:22:08;;;;;;;22.85;5.82;;;;;;;;;;6120812;23;20032;-88
2023/07/03 01:24:35;;;;;;;16.98;5.78;;;;;;;;;;6120644;23;20026;-88
2023/07/03 01:27:05;;;;;;;28.35;6.43;;;;;;;;;;6121420;23;20359;-89
2023/07/03 01:29:39;;;;;;;20.02;6.03;;;;;;;;;;6121358;23;20482;-89
2023/07/03 01:32:09;;;;;;;24.08;5.55;;;;;;;;;;6121769;23;20510;-88
2023/07/03 01:34:45;;;;;;;23.20;5.65;;;;;;;;;;6119091;23;20026;-88
2023/07/03 01:37:14;;;;;;;22.30;5.63;;;;;;;;;;6118200;23;20101;-88
2023/07/03 01:39:42;;;;;;;29.00;6.57;;;;;;;;;;6118998;23;20030;-89
2023/07/03 01:42:16;;;;;;;26.98;5.90;;;;;;;;;;6118703;23;20491;-88
2023/07/03 01:44:50;;;;;;;26.55;5.90;;;;;;;;;;6120940;23;20018;-88
2023/07/03 01:47:24;;;;;;;28.80;6.95;;;;;;;;;;6118779;23;20022;-89
2023/07/03 01:49:51;;;;;;;32.88;6.07;;;;;;;;;;6118560;23;20014;-89
2023/07/03 01:52:20;;;;;;;28.05;6.15;;;;;;;;;;6120963;23;20710;-89
2023/07/03 01:55:05;;;;;;;27.50;5.40;;;;;;;;;;6118913;23;20026;-89
2023/07/03 01:57:42;;;;;;;27.73;6.53;;;;;;;;;;6118335;23;20410;-88
2023/07/03 02:00:27;;;;;;;25.42;6.80;;;;;;;;;;6179497;23;20097;-87
2023/07/03 02:03:00;;;;;;;25.58;6.63;;;;;;;;;;6152201;23;20021;-88
2023/07/03 02:05:38;;;;;;;28.77;6.60;;;;;;;;;;6154856;23;20586;-87
2023/07/03 02:08:07;;;;;;;26.08;7.25;;;;;;;;;;6154448;23;20029;-88
2023/07/03 02:10:34;;;;;;;29.98;5.72;;;;;;;;;;6153864;23;20032;-88
2023/07/03 02:13:08;;;;;;;25.90;5.60;;;;;;;;;;6155266;23;20087;-87
2023/07/03 02:15:42;;;;;;;24.83;6.20;;;;;;;;;;6155977;23;20398;-88
2023/07/03 02:18:17;;;;;;;25.92;5.82;;;;;;;;;;6181757;23;20025;-88
2023/07/03 02:20:51;;;;;;;22.33;5.53;;;;;;;;;;6183455;23;20609;-88
2023/07/03 02:23:19;;;;;;;29.05;5.93;;;;;;;;;;6181405;23;20025;-89
2023/07/03 02:25:46;;;;;;;31.85;4.75;;;;;;;;;;6154442;23;20071;-88
2023/07/03 02:28:20;;;;;;;36.70;5.40;;;;;;;;;;6180060;23;20079;-89
2023/07/03 02:30:47;;;;;;;12.98;4.00;;;;;;;;;;6179949;23;20029;-88
2023/07/03 02:33:21;;;;;;;17.90;4.20;;;;;;;;;;6156516;23;20021;-89
2023/07/03 02:35:48;;;;;;;23.02;4.57;;;;;;;;;;6153762;23;20477;-89
2023/07/03 02:38:16;;;;;;;;;;;;;;;;;;6154860;23;20083;-89
2023/07/03 02:40:50;;;;;;;30.40;5.50;;;;;;;;;;6179678;23;19924;-89
2023/07/03 02:43:17;;;;;;;21.67;5.22;;;;;;;;;;6178276;23;20348;-89
2023/07/03 02:45:51;;;;;;;35.47;5.85;;;;;;;;;;6179543;23;20029;-87
2023/07/03 02:48:19;;;;;;;28.00;5.65;;;;;;;;;;6179215;23;20103;-88
2023/07/03 02:50:47;;;;;;;;;;;;;;;;;;6154720;23;20048;-88
2023/07/03 02:53:20;;;;;;;31.63;5.40;;;;;;;;;;6180388;23;19998;-88
2023/07/03 02:55:51;;;;;;;21.33;5.13;;;;;;;;;;6152947;23;20458;-89
2023/07/03 02:58:38;;;;;;;36.25;5.43;;;;;;;;;;6177065;23;20031;-89
2023/07/03 03:01:12;;;;;;;29.03;5.33;;;;;;;;;;6154036;23;20574;-88
2023/07/03 03:03:46;;;;;;;32.72;5.88;;;;;;;;;;6156142;23;20022;-88
2023/07/03 03:06:20;;;;;;;33.00;5.53;;;;;;;;;;6180107;23;20346;-89
2023/07/03 03:08:54;;;;;;;37.13;5.65;;;;;;;;;;6155372;23;20084;-89
2023/07/03 03:11:28;;;;;;;26.77;5.72;;;;;;;;;;6179275;23;20072;-88
2023/07/03 03:14:02;;;;;;;32.10;5.35;;;;;;;;;;6180688;23;20029;-88
2023/07/03 03:16:30;;;;;;;19.30;4.82;;;;;;;;;;6179442;23;20485;-88
2023/07/03 03:18:57;;;;;;;27.73;5.15;;;;;;;;;;6179868;23;20021;-88
2023/07/03 03:21:31;;;;;;;26.20;5.18;;;;;;;;;;6154769;23;20054;-88
2023/07/03 03:23:59;;;;;;;35.95;5.93;;;;;;;;;;6154151;23;20050;-89
2023/07/03 03:26:26;;;;;;;22.98;5.03;;;;;;;;;;6180023;23;20047;-88
2023/07/03 03:29:02;;;;;;;21.58;4.47;;;;;;;;;;6179610;23;20018;-88
2023/07/03 03:31:30;;;;;;;32.83;5.63;;;;;;;;;;6180726;23;20025;-88
2023/07/03 03:34:03;;;;;;;26.20;5.10;;;;;;;;;;6179462;23;20017;-88
2023/07/03 03:36:33;;;;;;;28.02;4.63;;;;;;;;;;6153399;23;20024;-88
2023/07/03 03:39:03;;;;;;;32.40;5.03;;;;;;;;;;6180753;23;20025;-89
2023/07/03 03:41:36;;;;;;;23.98;4.50;;;;;;;;;;6179380;23;20362;-88
2023/07/03 03:44:04;;;;;;;23.55;4.47;;;;;;;;;;6180078;23;20083;-88
2023/07/03 03:46:31;;;;;;;25.63;4.50;;;;;;;;;;6178684;23;20025;-88
2023/07/03 03:49:05;;;;;;;24.30;4.75;;;;;;;;;;6154706;23;20021;-88
2023/07/03 03:51:40;;;;;;;26.73;4.95;;;;;;;;;;6155691;23;20331;-88
2023/07/03 03:54:08;;;;;;;30.45;5.30;;;;;;;;;;6156932;23;20021;-88
2023/07/03 03:56:35;;;;;;;26.95;5.90;;;;;;;;;;6182030;23;20072;-88
2023/07/03 03:59:23;;;;;;;16.80;4.72;;;;;;;;;;6178391;23;20029;-88
2023/07/03 04:01:57;;;;;;;25.02;4.40;;;;;;;;;;6155936;23;20033;-88
2023/07/03 04:04:31;;;;;;;25.08;5.53;;;;;;;;;;6179798;23;20067;-88
2023/07/03 04:07:06;;;;;;;25.10;4.90;;;;;;;;;;6154173;23;20301;-88
2023/07/03 04:09:33;;;;;;;26.98;5.10;;;;;;;;;;6152918;23;20021;-88
2023/07/03 04:12:04;;;;;;;23.33;4.97;;;;;;;;;;6155504;23;20056;-87
2023/07/03 04:14:38;;;;;;;21.52;5.22;;;;;;;;;;6180385;23;20040;-89
2023/07/03 04:17:08;;;;;;;35.75;4.82;;;;;;;;;;6180735;23;20071;-88
2023/07/03 04:19:45;;;;;;;27.48;5.28;;;;;;;;;;6180454;23;20013;-88
2023/07/03 04:22:13;;;;;;;24.80;4.82;;;;;;;;;;6154010;23;20478;-88
2023/07/03 04:24:40;;;;;;;23.08;4.75;;;;;;;;;;6181212;23;20021;-88
2023/07/03 04:27:14;;;;;;;26.92;4.68;;;;;;;;;;6155912;23;20079;-88
2023/07/03 04:29:42;;;;;;;;;;;;;;;;;;6182243;23;20021;-88
2023/07/03 04:32:09;;;;;;;24.05;4.25;;;;;;;;;;6181446;23;19920;-88
2023/07/03 04:34:43;;;;;;;21.40;4.07;;;;;;;;;;6181140;23;20552;-88
2023/07/03 04:37:10;;;;;;;24.65;4.22;;;;;;;;;;6180679;23;20032;-88
2023/07/03 04:39:38;;;;;;;27.00;4.20;;;;;;;;;;6179862;23;20402;-88
2023/07/03 04:42:14;;;;;;;24.73;4.07;;;;;;;;;;6181157;23;20458;-89
2023/07/03 04:44:41;;;;;;;21.48;4.10;;;;;;;;;;6154699;23;20075;-88
2023/07/03 04:47:09;;;;;;;27.35;5.10;;;;;;;;;;6180745;23;20025;-89
2023/07/03 04:49:44;;;;;;;15.05;4.40;;;;;;;;;;6178375;23;20029;-88
2023/07/03 04:52:16;;;;;;;22.02;5.38;;;;;;;;;;6153313;23;20033;-88
2023/07/03 04:54:49;;;;;;;22.90;4.22;;;;;;;;;;6157230;23;20024;-89
2023/07/03 04:57:17;;;;;;;19.35;4.38;;;;;;;;;;6154974;23;20084;-88
2023/07/03 04:59:44;;;;;;;25.13;5.15;;;;;;;;;;6130417;23;20030;-87
2023/07/03 05:02:18;;;;;;;22.10;5.00;;;;;;;;;;6120308;23;20029;-88
2023/07/03 05:04:45;;;;;;;23.00;4.80;;;;;;;;;;6122406;23;20018;-89
2023/07/03 05:07:19;;;;;;;15.32;4.13;;;;;;;;;;6118283;23;20121;-87
2023/07/03 05:09:47;;;;;;;;;;;;;;;;;;6122842;23;20534;-88
2023/07/03 05:12:14;;;;;;;20.33;4.30;;;;;;;;;;6122265;23;20352;-88
2023/07/03 05:14:48;;;;;;;19.42;4.28;;;;;;;;;;6122308;23;20022;-88
2023/07/03 05:17:15;;;;;;;17.10;3.95;;;;;;;;;;6122105;23;20017;-87
2023/07/03 05:19:42;;;;;;;23.48;4.68;;;;;;;;;;6121710;23;20479;-87
2023/07/03 05:22:19;;;;;;;22.33;3.28;;;;;;;;;;6124721;23;20022;-88
2023/07/03 05:24:46;;;;;;;17.15;3.42;;;;;;;;;;6121089;23;20022;-88
2023/07/03 05:27:20;;;;;;;18.48;3.28;;;;;;;;;;6123823;23;20026;-88
2023/07/03 05:29:47;;;;;;;19.63;3.65;;;;;;;;;;6125395;23;20084;-88
2023/07/03 05:32:21;;;;;;;19.58;3.67;;;;;;;;;;6126103;23;20066;-88
2023/07/03 05:34:48;;;;;;;17.38;3.47;;;;;;;;;;6126615;23;20752;-88
2023/07/03 05:37:16;;;;;;;17.70;3.40;;;;;;;;;;6120834;23;20396;-89
2023/07/03 05:39:49;;;;;;;25.83;3.53;;;;;;;;;;6121340;23;20018;-89
2023/07/03 05:42:17;;;;;;;19.33;3.78;;;;;;;;;;6123275;23;20082;-88
2023/07/03 05:44:51;;;;;;;24.30;3.33;;;;;;;;;;6121769;23;20022;-91
2023/07/03 05:47:25;;;;;;;20.83;3.70;;;;;;;;;;6122397;23;20033;-92
2023/07/03 05:50:00;;;;;;;21.77;3.72;;;;;;;;;;6122811;23;20372;-90
2023/07/03 05:52:27;;;;;;;25.45;4.15;;;;;;;;;;6122041;23;20037;-91
2023/07/03 05:54:55;;;;;;;19.80;3.85;;;;;;;;;;6120753;23;20090;-92
2023/07/03 05:57:29;;;;;;;16.88;3.55;;;;;;;;;;6122296;23;20456;-92
2023/07/03 06:00:10;;;;;;;20.65;3.45;;;;;;;;;;6124767;23;20026;-92
2023/07/03 06:02:44;;;;;;;23.13;4.00;;;;;;;;;;6123177;23;20018;-91
2023/07/03 06:05:12;;;;;;;20.30;4.35;;;;;;;;;;6123795;23;20037;-92
2023/07/03 06:07:41;;;;;;;20.15;4.72;;;;;;;;;;6123419;23;20457;-91
2023/07/03 06:10:15;;;;;;;19.98;3.80;;;;;;;;;;6121484;23;20026;-92
2023/07/03 06:12:43;;;;;;;;;;;;;;;;;;6124005;23;20018;-92
2023/07/03 06:15:16;;;;;;;14.23;3.70;;;;;;;;;;6124072;23;19928;-92
2023/07/03 06:17:44;;;;;;;20.50;4.57;;;;;;;;;;6122249;23;20084;-90
2023/07/03 06:20:11;;;;;;;;;;;;;;;;;;6122456;23;20049;-91
2023/07/03 06:22:45;;;;;;;16.75;3.53;;;;;;;;;;6171790;23;19976;-90
2023/07/03 06:25:12;;;;;;;18.75;3.90;;;;;;;;;;6121664;23;20026;-90
2023/07/03 06:27:46;;;;;;;21.15;4.25;;;;;;;;;;6123182;23;20320;-92
2023/07/03 06:30:14;;;;;;;13.05;3.15;;;;;;;;;;6124204;23;20029;-91
2023/07/03 06:32:41;;;;;;;;;;;;;;;;;;6124702;23;20017;-90
2023/07/03 06:35:16;;;;;;;12.98;3.63;;;;;;;;;;6123009;23;20319;-90
2023/07/03 06:37:44;;;;;;;15.65;3.30;;;;;;;;;;6123722;23;20026;-91
2023/07/03 06:40:11;;;;;;;;;;;;;;;;;;6121216;23;20033;-91
2023/07/03 06:42:45;;;;;;;13.63;3.33;;;;;;;;;;6168805;23;19964;-91
2023/07/03 06:45:13;;;;;;;19.70;3.47;;;;;;;;;;6124324;23;20026;-92
2023/07/03 06:47:46;;;;;;;16.50;3.15;;;;;;;;;;6124253;23;20581;-90
2023/07/03 06:50:14;;;;;;;;;;;;;;;;;;6123196;23;20025;-91
2023/07/03 06:52:42;;;;;;;11.05;2.70;;;;;;;;;;6169804;23;19921;-90
2023/07/03 06:55:15;;;;;;;13.50;2.60;;;;;;;;;;6120614;23;20025;-92
2023/07/03 06:57:43;;;;;;;11.93;2.58;;;;;;;;;;6120023;23;20022;-91
2023/07/03 07:00:10;;;;;;;13.13;2.92;;;;;;;;;;6120659;23;20037;-91
2023/07/03 07:02:51;;;;;;;13.15;3.08;;;;;;;;;;6123814;23;20033;-91
2023/07/03 07:05:21;;;;;;;8.15;2.70;;;;;;;;;;6127466;23;20343;-91
2023/07/03 07:07:55;;;;;;;13.18;3.50;;;;;;;;;;6125147;23;20113;-92
2023/07/03 07:10:24;;;;;;;10.10;2.33;;;;;;;;;;6126973;23;20033;-92
2023/07/03 07:12:51;;;;;;;18.05;2.47;;;;;;;;;;6124861;23;20483;-91
2023/07/03 07:15:25;;;;;;;14.18;3.17;;;;;;;;;;6125711;23;20026;-91
2023/07/03 07:17:52;;;;;;;22.00;2.78;;;;;;;;;;6123029;23;20092;-91
2023/07/03 07:20:26;;;;;;;19.42;3.13;;;;;;;;;;6123709;23;20045;-92
2023/07/03 07:22:53;;;;;;;13.52;2.40;;;;;;;;;;6123415;23;20029;-92
2023/07/03 07:25:27;;;;;;;10.13;3.22;;;;;;;;;;6123816;23;20030;-91
2023/07/03 07:27:55;;;;;;;6.57;2.13;;;;;;;;;;6122954;23;20092;-92
2023/07/03 07:30:22;;;;;;;9.30;2.78;;;;;;;;;;6123000;23;20117;-92
2023/07/03 07:32:56;;;;;;;13.88;2.83;;;;;;;;;;6121425;23;20026;-92
2023/07/03 07:35:24;;;;;;;14.88;3.17;;;;;;;;;;6122184;23;20018;-92
2023/07/03 07:37:51;;;;;;;11.02;2.30;;;;;;;;;;6122379;23;20026;-91
2023/07/03 07:40:25;;;;;;;17.73;2.65;;;;;;;;;;6123029;23;20025;-92
2023/07/03 07:42:59;;;;;;;12.23;2.67;;;;;;;;;;6122212;23;20018;-91
2023/07/03 07:45:33;;;;;;;13.68;2.88;;;;;;;;;;6123502;23;20018;-93
2023/07/03 07:48:07;;;;;;;17.88;2.58;;;;;;;;;;6125095;23;20045;-91
2023/07/03 07:50:35;;;;;;;15.82;3.05;;;;;;;;;;6124683;23;20057;-91
2023/07/03 07:53:03;;;;;;;21.05;3.38;;;;;;;;;;6124870;23;20025;-91
2023/07/03 07:55:38;;;;;;;12.02;2.85;;;;;;;;;;6125199;23;20032;-92
2023/07/03 07:58:05;;;;;;;17.20;3.08;;;;;;;;;;6124347;23;20077;-92
2023/07/03 08:00:50;;;;;;;11.07;2.72;;;;;;;;;;6125594;23;20033;-91
2023/07/03 08:03:17;;;;;;;16.80;3.67;;;;;;;;;;6124276;23;20335;-91
2023/07/03 08:05:56;;;;;;;20.80;3.20;;;;;;;;;;6124110;23;20025;-92
2023/07/03 08:08:23;;;;;;;17.38;3.50;;;;;;;;;;6125417;23;20029;-91
2023/07/03 08:10:55;;;;;;;21.98;4.15;;;;;;;;;;6124007;23;20021;-92
2023/07/03 08:13:29;;;;;;;15.32;2.78;;;;;;;;;;6124856;23;20022;-91
2023/07/03 08:15:57;;;;;;;19.85;4.00;;;;;;;;;;6124289;23;20026;-92
2023/07/03 08:18:31;;;;;;;18.58;4.10;;;;;;;;;;6124661;23;20053;-92
2023/07/03 08:20:58;;;;;;;20.55;4.05;;;;;;;;;;6123221;23;20021;-91
2023/07/03 08:23:32;;;;;;;17.50;4.07;;;;;;;;;;6123053;23;20410;-92
2023/07/03 08:26:01;;;;;;;22.15;4.20;;;;;;;;;;6123502;23;20036;-91
2023/07/03 08:28:30;;;;;;;24.95;5.00;;;;;;;;;;6123654;23;20022;-91
2023/07/03 08:31:03;;;;;;;23.55;4.97;;;;;;;;;;6124263;23;20408;-91
2023/07/03 08:33:31;;;;;;;26.15;4.90;;;;;;;;;;6123835;23;20513;-91
2023/07/03 08:35:58;;;;;;;19.52;4.55;;;;;;;;;;6123350;23;20024;-89
2023/07/03 08:38:35;;;;;;;23.38;4.75;;;;;;;;;;6128715;23;20080;-91
2023/07/03 08:41:04;;;;;;;21.80;4.80;;;;;;;;;;6128216;23;20029;-93
2023/07/03 08:43:39;;;;;;;24.65;5.70;;;;;;;;;;6124066;23;20080;-91
2023/07/03 08:46:12;;;;;;;29.05;5.00;;;;;;;;;;6124860;23;20073;-92
2023/07/03 08:48:47;;;;;;;22.35;4.45;;;;;;;;;;6124827;23;20370;-91
2023/07/03 08:51:22;;;;;;;23.25;4.68;;;;;;;;;;6124125;23;20072;-91
2023/07/03 08:53:52;;;;;;;23.08;4.25;;;;;;;;;;6124209;23;20030;-92
2023/07/03 08:56:33;;;;;;;18.05;4.53;;;;;;;;;;6124367;23;20400;-92
2023/07/03 08:59:02;;;;;;;22.63;4.28;;;;;;;;;;6134292;23;20024;-91
2023/07/03 09:01:56;;;;;;;20.73;3.90;;;;;;;;;;6160371;23;20017;-92
2023/07/03 09:04:23;;;;;;;23.27;4.90;;;;;;;;;;6158265;23;20371;-92
2023/07/03 09:06:59;;;;;;;21.58;4.50;;;;;;;;;;6159857;23;20017;-91
2023/07/03 09:09:30;;;;;;;29.95;4.75;;;;;;;;;;6158747;23;20353;-91
2023/07/03 09:12:16;;;;;;;21.25;4.60;;;;;;;;;;6159065;23;20025;-91
2023/07/03 09:14:48;;;;;;;15.60;4.10;;;;;;;;;;6158523;23;20081;-91
2023/07/03 09:17:23;;;;;;;22.67;4.35;;;;;;;;;;6159383;23;20389;-91
2023/07/03 09:19:51;;;;;;;15.40;4.00;;;;;;;;;;6157814;23;20021;-91
2023/07/03 09:22:33;;;;;;;18.70;4.43;;;;;;;;;;6159342;23;20017;-91
2023/07/03 09:25:01;;;;;;;18.05;3.88;;;;;;;;;;6184115;23;20075;-91
2023/07/03 09:27:35;;;;;;;20.45;3.80;;;;;;;;;;6159008;23;20079;-92
2023/07/03 09:30:05;;;;;;;21.52;4.45;;;;;;;;;;6157802;23;20084;-91
2023/07/03 09:32:40;;;;;;;11.50;2.90;;;;;;;;;;6160128;23;20032;-92
2023/07/03 09:35:18;;;;;;;19.88;3.95;;;;;;;;;;6157330;23;20496;-92
2023/07/03 09:37:57;;;;;;;14.90;3.22;;;;;;;;;;6159701;23;20028;-92
2023/07/03 09:40:26;;;;;;;19.25;3.90;;;;;;;;;;6158143;23;20021;-92
2023/07/03 09:43:00;;;;;;;22.08;4.47;;;;;;;;;;6158923;23;20017;-92
2023/07/03 09:45:27;;;;;;;;;;;;;;;;;;6185124;23;20025;-92
2023/07/03 09:47:57;;;;;;;27.50;4.78;;;;;;;;;;6157802;23;19916;-92
2023/07/03 09:50:35;;;;;;;19.08;4.97;;;;;;;;;;6159557;23;20021;-92
2023/07/03 09:53:03;;;;;;;22.30;4.93;;;;;;;;;;6157844;23;20072;-91
2023/07/03 09:55:38;;;;;;;17.67;4.85;;;;;;;;;;6159737;23;20035;-91
2023/07/03 09:58:13;;;;;;;19.13;4.75;;;;;;;;;;6158271;23;20017;-91
2023/07/03 10:00:58;;;;;;;17.10;5.07;;;;;;;;;;6182020;23;20025;-92
2023/07/03 10:03:26;;;;;;;;;;;;;;;;;;6158496;23;20021;-91
2023/07/03 10:06:11;;;;;;;21.42;4.97;;;;;;;;;;6158789;23;20326;-92
2023/07/03 10:08:46;;;;;;;25.05;5.05;;;;;;;;;;6158484;23;20024;-91
2023/07/03 10:11:32;;;;;;;14.75;4.28;;;;;;;;;;6160285;23;20079;-91
2023/07/03 10:14:05;;;;;;;26.02;5.32;;;;;;;;;;6157342;23;20021;-91
2023/07/03 10:16:40;;;;;;;16.88;3.90;;;;;;;;;;6159254;23;20068;-92
2023/07/03 10:19:08;;;;;;;18.83;4.38;;;;;;;;;;6157285;23;20488;-92
2023/07/03 10:21:35;;;;;;;14.98;4.18;;;;;;;;;;6157806;23;20017;-92
2023/07/03 10:24:10;;;;;;;19.38;4.10;;;;;;;;;;6158254;23;20454;-90
2023/07/03 10:26:47;;;;;;;15.63;4.20;;;;;;;;;;6158008;23;20024;-92
2023/07/03 10:29:24;;;;;;;18.52;4.18;;;;;;;;;;6158632;23;20520;-91
2023/07/03 10:31:58;;;;;;;15.90;4.47;;;;;;;;;;6157814;23;20044;-91
2023/07/03 10:34:37;;;;;;;20.00;4.38;;;;;;;;;;6158536;23;20024;-92
2023/07/03 10:37:05;;;;;;;13.70;3.80;;;;;;;;;;6157197;23;20016;-92
2023/07/03 10:39:46;;;;;;;14.10;3.60;;;;;;;;;;6159622;23;20023;-92
2023/07/03 10:42:19;;;;;;;15.50;3.90;;;;;;;;;;6155891;23;20028;-92
2023/07/03 10:44:56;;;;;;;18.23;3.63;;;;;;;;;;6184136;23;20033;-92
2023/07/03 10:47:28;;;;;;;21.10;4.43;;;;;;;;;;6156790;23;20406;-91
2023/07/03 10:50:03;;;;;;;19.33;4.63;;;;;;;;;;6159229;23;20021;-92
2023/07/03 10:52:33;;;;;;;12.35;4.35;;;;;;;;;;6156516;23;20013;-92
2023/07/03 10:55:11;;;;;;;20.80;4.07;;;;;;;;;;6158699;23;20024;-92
2023/07/03 10:57:50;;;;;;;16.98;4.43;;;;;;;;;;6157462;23;20035;-92
2023/07/03 11:00:42;;;;;;;15.52;3.55;;;;;;;;;;6132984;23;20033;-91
2023/07/03 11:03:10;;;;;;;17.92;4.15;;;;;;;;;;6122132;23;20022;-92
2023/07/03 11:05:47;;;;;;;16.60;4.18;;;;;;;;;;6122809;23;20025;-92
2023/07/03 11:08:19;;;;;;;17.65;4.18;;;;;;;;;;6122875;23;20100;-92
2023/07/03 11:10:58;;;;;;;18.05;3.90;;;;;;;;;;6122957;23;20022;-91
2023/07/03 11:13:49;;;;;;;17.98;3.97;;;;;;;;;;6122206;23;20764;-91
2023/07/03 11:16:25;;;;;;;16.50;4.00;;;;;;;;;;6124517;23;20046;-91
2023/07/03 11:19:11;;;;;;;15.10;3.70;;;;;;;;;;6122159;23;20021;-91
2023/07/03 11:21:48;;;;;;;18.60;4.03;;;;;;;;;;6124875;23;20030;-92
2023/07/03 11:24:20;;;;;;;22.73;4.28;;;;;;;;;;6124134;23;20026;-92
2023/07/03 11:26:59;;;;;;;24.08;4.78;;;;;;;;;;6124855;23;20089;-92
2023/07/03 11:29:36;;;;;;;22.58;3.88;;;;;;;;;;6126130;23;20517;-91
2023/07/03 11:32:09;;;;;;;20.05;4.65;;;;;;;;;;6123885;23;20479;-91
2023/07/03 11:34:44;;;;;;;23.48;4.32;;;;;;;;;;6125101;23;20021;-92
2023/07/03 11:37:34;;;;;;;16.50;3.63;;;;;;;;;;6134646;23;20530;-92
2023/07/03 11:40:23;;;;;;;18.80;4.25;;;;;;;;;;6125286;23;20458;-92
2023/07/03 11:43:08;;;;;;;18.65;4.35;;;;;;;;;;6124924;23;20373;-92
2023/07/03 11:45:50;;;;;;;18.73;4.47;;;;;;;;;;6125277;23;20081;-91
2023/07/03 11:48:19;;;;;;;20.98;4.88;;;;;;;;;;6124090;23;20057;-91
2023/07/03 11:50:55;;;;;;;22.38;4.70;;;;;;;;;;6124154;23;20399;-92
2023/07/03 11:53:36;;;;;;;15.75;3.90;;;;;;;;;;6123593;23;20025;-91
2023/07/03 11:56:12;;;;;;;17.95;3.55;;;;;;;;;;6124545;23;20030;-93
2023/07/03 11:58:39;;;;;;;18.42;3.78;;;;;;;;;;6124894;23;20089;-92
2023/07/03 12:01:30;;;;;;;20.63;4.93;;;;;;;;;;6126243;23;20355;-92
2023/07/03 12:04:02;;;;;;;19.48;4.10;;;;;;;;;;6123968;23;20021;-91
2023/07/03 12:06:38;;;;;;;15.88;3.95;;;;;;;;;;6125009;23;20025;-92
2023/07/03 12:09:21;;;;;;;19.75;4.45;;;;;;;;;;6124149;23;20022;-92
2023/07/03 12:12:06;;;;;;;15.57;3.25;;;;;;;;;;6124590;23;20057;-92
2023/07/03 12:14:40;;;;;;;15.02;3.47;;;;;;;;;;6125145;23;20022;-91
2023/07/03 12:17:33;;;;;;;16.55;4.38;;;;;;;;;;6123158;23;20325;-92
2023/07/03 12:20:11;;;;;;;17.23;4.10;;;;;;;;;;6124853;23;20054;-92
2023/07/03 12:22:50;;;;;;;17.20;3.80;;;;;;;;;;6123860;23;20026;-92
2023/07/03 12:25:34;;;;;;;14.18;3.95;;;;;;;;;;6123912;23;20701;-92
2023/07/03 12:28:11;;;;;;;16.02;3.72;;;;;;;;;;6124239;23;20097;-91
2023/07/03 12:30:38;;;;;;;12.88;3.95;;;;;;;;;;6124268;23;20030;-91
2023/07/03 12:33:19;;;;;;;17.40;3.75;;;;;;;;;;6123482;23;20021;-91
2023/07/03 12:35:46;;;;;;;22.75;3.90;;;;;;;;;;6124468;23;20014;-92
2023/07/03 12:38:20;;;;;;;21.60;4.22;;;;;;;;;;6123688;23;20405;-92
2023/07/03 12:40:48;;;;;;;31.35;4.75;;;;;;;;;;6124167;23;20025;-91
2023/07/03 12:43:16;;;;;;;20.88;4.63;;;;;;;;;;6123604;23;20100;-92
2023/07/03 12:45:51;;;;;;;17.67;3.78;;;;;;;;;;6124328;23;20073;-91
2023/07/03 12:48:20;;;;;;;19.98;4.40;;;;;;;;;;6124634;23;20030;-91
2023/07/03 12:50:58;;;;;;;23.63;5.22;;;;;;;;;;6124011;23;20030;-93
2023/07/03 12:53:34;;;;;;;19.95;5.18;;;;;;;;;;6123565;23;20463;-92
2023/07/03 12:56:09;;;;;;;19.95;4.43;;;;;;;;;;6124087;23;20040;-91
2023/07/03 12:58:37;;;;;;;18.92;5.00;;;;;;;;;;6123960;23;20033;-92
2023/07/03 13:01:07;;;;;;;18.77;5.05;;;;;;;;;;6173576;23;20092;-92
2023/07/03 13:03:41;;;;;;;21.33;4.70;;;;;;;;;;6159902;23;20028;-91
2023/07/03 13:06:15;;;;;;;21.27;5.15;;;;;;;;;;6157962;23;20044;-92
2023/07/03 13:08:50;;;;;;;20.73;5.00;;;;;;;;;;6159924;23;20092;-91
2023/07/03 13:11:30;;;;;;;23.42;4.22;;;;;;;;;;6184169;23;20021;-91
2023/07/03 13:14:13;;;;;;;21.25;4.53;;;;;;;;;;6159524;23;20071;-92
2023/07/03 13:16:45;;;;;;;15.20;3.63;;;;;;;;;;6158159;23;20035;-91
2023/07/03 13:19:35;;;;;;;17.38;4.13;;;;;;;;;;6158158;23;20017;-90
2023/07/03 13:22:06;;;;;;;21.25;4.05;;;;;;;;;;6158380;23;20100;-92
2023/07/03 13:24:48;;;;;;;14.57;3.72;;;;;;;;;;6183196;23;20082;-91
2023/07/03 13:27:26;;;;;;;24.15;4.80;;;;;;;;;;6157859;23;20021;-92
2023/07/03 13:30:19;;;;;;;20.90;4.32;;;;;;;;;;6159946;23;20458;-92
2023/07/03 13:32:55;;;;;;;19.02;3.95;;;;;;;;;;6159395;23;20112;-91
2023/07/03 13:35:27;;;;;;;21.73;4.43;;;;;;;;;;6184429;23;20021;-92
2023/07/03 13:38:00;;;;;;;;;;;;;;;;;;6159471;23;20013;-93
2023/07/03 13:40:28;;;;;;;17.00;4.25;;;;;;;;;;6159112;23;19924;-90
2023/07/03 13:43:02;;;;;;;15.65;4.30;;;;;;;;;;6158821;23;20027;-91
2023/07/03 13:45:29;;;;;;;;;;;;;;;;;;6158537;23;20017;-92
2023/07/03 13:47:56;;;;;;;18.88;4.53;;;;;;;;;;6157170;23;19974;-93
2023/07/03 13:50:30;;;;;;;24.05;4.05;;;;;;;;;;6160074;23;20024;-92
2023/07/03 13:52:58;;;;;;;19.67;4.50;;;;;;;;;;6157809;23;20524;-92
2023/07/03 13:55:31;;;;;;;16.58;4.32;;;;;;;;;;6159507;23;20433;-91
2023/07/03 13:57:59;;;;;;;20.42;4.53;;;;;;;;;;6157633;23;20024;-92
2023/07/03 14:00:26;;;;;;;;;;;;;;;;;;6137381;23;20040;-92
2023/07/03 14:02:59;;;;;;;18.02;4.30;;;;;;;;;;6169604;23;19928;-92
2023/07/03 14:05:27;;;;;;;;;;;;;;;;;;6123426;23;20022;-92
2023/07/03 14:08:01;;;;;;;20.55;4.47;;;;;;;;;;6169169;23;20294;-93
2023/07/03 14:10:29;;;;;;;19.15;3.92;;;;;;;;;;6123699;23;20025;-92
2023/07/03 14:12:56;;;;;;;15.73;4.15;;;;;;;;;;6123061;23;20030;-91
2023/07/03 14:15:30;;;;;;;17.92;4.95;;;;;;;;;;6122111;23;20014;-92
2023/07/03 14:17:57;;;;;;;17.63;3.88;;;;;;;;;;6123102;23;20026;-92
2023/07/03 14:20:31;;;;;;;13.60;3.80;;;;;;;;;;6122938;23;20026;-92
2023/07/03 14:22:58;;;;;;;15.00;4.30;;;;;;;;;;6123131;23;20037;-92
2023/07/03 14:25:26;;;;;;;17.65;4.32;;;;;;;;;;6122993;23;20092;-91
2023/07/03 14:28:00;;;;;;;14.15;3.63;;;;;;;;;;6122109;23;20018;-92
2023/07/03 14:30:27;;;;;;;15.93;3.88;;;;;;;;;;6122982;23;20407;-91
2023/07/03 14:33:01;;;;;;;17.58;3.78;;;;;;;;;;6123284;23;20049;-92
2023/07/03 14:35:28;;;;;;;;;;;;;;;;;;6123260;23;20037;-92
2023/07/03 14:37:55;;;;;;;14.98;3.53;;;;;;;;;;6171713;23;20000;-92
2023/07/03 14:40:29;;;;;;;16.92;3.63;;;;;;;;;;6123777;23;20022;-92
2023/07/03 14:42:57;;;;;;;15.15;3.05;;;;;;;;;;6122564;23;20025;-91
2023/07/03 14:45:30;;;;;;;18.50;3.47;;;;;;;;;;6122391;23;20022;-92
2023/07/03 14:47:58;;;;;;;17.02;3.35;;;;;;;;;;6122477;23;20018;-92
2023/07/03 14:50:25;;;;;;;;;;;;;;;;;;6123366;23;20030;-91
2023/07/03 14:53:00;;;;;;;21.33;3.85;;;;;;;;;;6169050;23;19917;-93
2023/07/03 14:55:27;;;;;;;15.07;3.90;;;;;;;;;;6123956;23;20092;-92
2023/07/03 14:58:01;;;;;;;14.60;3.88;;;;;;;;;;6123225;23;20022;-92
2023/07/03 15:00:36;;;;;;;13.55;3.35;;;;;;;;;;6152533;23;20025;-92
2023/07/03 15:03:17;;;;;;;24.10;3.67;;;;;;;;;;6157982;23;20021;-92
2023/07/03 15:06:00;;;;;;;16.58;3.72;;;;;;;;;;6205831;23;20044;-91
2023/07/03 15:08:41;;;;;;;16.73;3.35;;;;;;;;;;6158096;23;20019;-93